Terminal Aerodrome Forecast
Issued by NWS Newport/Morehead City, NC

Home | Current Version | Previous Version | Graphics & Text | Print | Product List | Glossary Off
Versions: 1 2 3 4 5 6 7 8 9 10 11 12 13 14 15 16 17 18

727
FTUS42 KMHX 172339
TAFEWN
TAF
KEWN 172339Z 1800/1824 20006KT P6SM OVC250
     FM180600 22008KT P6SM VCSH SCT090
     FM180800 23008KT P6SM VCSH BKN060
     FM180900 23008KT P6SM VCSH BKN040
     FM181100 24009KT P6SM VCSH BKN017
     FM181300 24009KT 6SM -SHRA BKN010
     FM181800 28011KT P6SM BKN045
     FM182000 30011KT P6SM SCT190=

USA.gov is the U.S. government's official web portal to all federal, state and local government web resources and services.